createdAt,value
2023-09-04T00:00:03.051Z,17.76
2023-09-04T00:00:35.008Z,17.79
2023-09-04T00:01:07.043Z,17.77
2023-09-04T00:01:40.000Z,17.78
2023-09-04T00:02:11.946Z,17.76
2023-09-04T00:02:43.957Z,17.73
2023-09-04T00:03:16.319Z,17.74
2023-09-04T00:03:48.310Z,17.76
2023-09-04T00:04:20.243Z,17.76
2023-09-04T00:04:53.269Z,17.74
2023-09-04T00:05:25.321Z,17.69
2023-09-04T00:05:57.243Z,17.67
2023-09-04T00:06:29.152Z,17.66
2023-09-04T00:07:01.132Z,17.65
2023-09-04T00:07:33.045Z,17.65
2023-09-04T00:08:05.295Z,17.66
2023-09-04T00:08:37.248Z,17.68
2023-09-04T00:09:09.190Z,17.65
2023-09-04T00:09:41.400Z,17.64
2023-09-04T00:10:13.668Z,17.61
2023-09-04T00:10:45.698Z,17.58
2023-09-04T00:11:17.628Z,17.59
2023-09-04T00:11:49.535Z,17.63
2023-09-04T00:12:21.500Z,17.59
2023-09-04T00:12:53.726Z,17.55
2023-09-04T00:13:25.637Z,17.69
2023-09-04T00:13:57.615Z,17.63
2023-09-04T00:14:29.524Z,17.62
2023-09-04T00:15:01.427Z,17.60
2023-09-04T00:15:33.359Z,17.55
2023-09-04T00:16:05.486Z,17.50
2023-09-04T00:16:38.100Z,17.49
2023-09-04T00:17:12.228Z,17.48
2023-09-04T00:17:44.216Z,17.49
2023-09-04T00:18:16.161Z,17.47
2023-09-04T00:18:48.152Z,17.50
2023-09-04T00:19:20.157Z,17.49
2023-09-04T00:19:52.147Z,17.49
2023-09-04T00:20:25.796Z,17.46
2023-09-04T00:20:57.717Z,17.42
2023-09-04T00:21:29.624Z,17.39
2023-09-04T00:22:01.544Z,17.38
2023-09-04T00:22:33.466Z,17.38
2023-09-04T00:23:05.378Z,17.36
2023-09-04T00:23:37.400Z,17.36
2023-09-04T00:24:09.357Z,17.35
2023-09-04T00:24:41.278Z,17.35
2023-09-04T00:25:13.226Z,17.32
2023-09-04T00:25:45.465Z,17.33
2023-09-04T00:26:17.412Z,17.32
2023-09-04T00:26:49.344Z,17.34
2023-09-04T00:27:21.278Z,17.33
2023-09-04T00:27:54.525Z,17.30
2023-09-04T00:28:27.206Z,17.31
2023-09-04T00:28:59.210Z,17.31
2023-09-04T00:29:31.121Z,17.30
2023-09-04T00:30:03.051Z,17.29
2023-09-04T00:30:34.977Z,17.29
2023-09-04T00:31:06.944Z,17.29
2023-09-04T00:31:38.885Z,17.27
2023-09-04T00:32:10.810Z,17.29
2023-09-04T00:32:42.769Z,17.25
2023-09-04T00:33:14.709Z,17.25
2023-09-04T00:33:46.635Z,17.24
2023-09-04T00:34:18.635Z,17.25
2023-09-04T00:34:50.554Z,17.24
2023-09-04T00:35:23.312Z,17.21
2023-09-04T00:35:55.219Z,17.19
2023-09-04T00:36:27.107Z,17.19
2023-09-04T00:36:59.657Z,17.19
2023-09-04T00:37:31.666Z,17.19
2023-09-04T00:38:03.641Z,17.17
2023-09-04T00:38:35.608Z,17.16
2023-09-04T00:39:07.814Z,17.17
2023-09-04T00:39:39.808Z,17.15
2023-09-04T00:40:12.007Z,17.15
2023-09-04T00:40:43.943Z,17.14
2023-09-04T00:41:17.144Z,17.15
2023-09-04T00:41:49.100Z,17.15
2023-09-04T00:42:21.016Z,17.10
2023-09-04T00:42:52.925Z,17.11
2023-09-04T00:43:24.841Z,17.10
2023-09-04T00:43:56.765Z,17.07
2023-09-04T00:44:28.806Z,17.08
2023-09-04T00:45:02.060Z,17.04
2023-09-04T00:45:36.037Z,17.07
2023-09-04T00:46:08.554Z,17.06
2023-09-04T00:46:43.413Z,17.05
2023-09-04T00:47:15.705Z,17.03
2023-09-04T00:47:48.054Z,17.02
2023-09-04T00:48:21.058Z,17.01
2023-09-04T00:48:53.510Z,16.99
2023-09-04T00:49:25.606Z,16.99
2023-09-04T00:49:58.477Z,16.98
2023-09-04T00:50:31.561Z,16.99
2023-09-04T00:51:03.840Z,17.00
2023-09-04T00:51:35.933Z,17.03
2023-09-04T00:52:08.074Z,17.01
2023-09-04T00:52:40.419Z,16.94
2023-09-04T00:53:12.669Z,16.97
2023-09-04T00:53:44.598Z,17.00
2023-09-04T00:54:17.746Z,17.00
2023-09-04T00:54:49.837Z,16.99
2023-09-04T00:55:21.998Z,16.98
2023-09-04T00:55:54.090Z,16.95
2023-09-04T00:56:26.331Z,16.90
2023-09-04T00:56:58.421Z,16.88
2023-09-04T00:57:30.358Z,16.86
2023-09-04T00:58:02.321Z,16.85
2023-09-04T00:58:37.866Z,16.86
2023-09-04T00:59:09.885Z,16.87
2023-09-04T00:59:41.895Z,16.86
2023-09-04T01:00:20.811Z,16.84
2023-09-04T01:00:52.873Z,16.82
2023-09-04T01:01:25.543Z,16.85
2023-09-04T01:02:00.744Z,16.85
2023-09-04T01:02:34.278Z,16.81
2023-09-04T01:03:06.392Z,16.78
2023-09-04T01:03:38.431Z,16.75
2023-09-04T01:04:10.400Z,16.72
2023-09-04T01:04:42.468Z,16.70
2023-09-04T01:05:14.383Z,16.67
2023-09-04T01:05:46.616Z,16.66
2023-09-04T01:06:18.527Z,16.71
2023-09-04T01:06:50.471Z,16.72
2023-09-04T01:07:22.413Z,16.72
2023-09-04T01:07:54.569Z,16.71
2023-09-04T01:08:26.916Z,16.71
2023-09-04T01:08:58.902Z,16.67
2023-09-04T01:09:31.187Z,16.62
2023-09-04T01:10:05.053Z,16.61
2023-09-04T01:11:05.680Z,16.62
2023-09-04T01:11:43.969Z,16.62
2023-09-04T01:12:19.001Z,16.66
2023-09-04T01:12:59.629Z,16.61
2023-09-04T01:13:39.802Z,16.60
2023-09-04T01:14:15.085Z,16.59
2023-09-04T01:14:48.527Z,16.56
2023-09-04T01:15:20.780Z,16.56
2023-09-04T01:15:53.205Z,16.53
2023-09-04T01:16:25.499Z,16.51
2023-09-04T01:16:58.359Z,16.53
2023-09-04T01:17:31.427Z,16.50
2023-09-04T01:18:03.928Z,16.52
2023-09-04T01:18:36.497Z,16.50
2023-09-04T01:19:11.769Z,16.52
2023-09-04T01:19:44.088Z,16.49
2023-09-04T01:20:22.728Z,16.46
2023-09-04T01:21:01.450Z,16.47
2023-09-04T01:21:39.287Z,16.49
2023-09-04T01:22:11.484Z,16.49
2023-09-04T01:22:43.484Z,16.51
2023-09-04T01:23:15.407Z,16.47
2023-09-04T01:23:47.317Z,16.45
2023-09-04T01:24:19.275Z,16.47
2023-09-04T01:24:51.791Z,16.44
2023-09-04T01:25:31.711Z,16.43
2023-09-04T01:26:26.759Z,16.44
2023-09-04T01:27:07.406Z,16.44
2023-09-04T01:27:42.644Z,16.46
2023-09-04T01:28:52.200Z,16.45
2023-09-04T01:30:01.960Z,16.41
2023-09-04T01:30:41.531Z,16.37
2023-09-04T01:31:24.001Z,16.36
2023-09-04T01:32:04.346Z,16.35
2023-09-04T01:32:41.210Z,16.34
2023-09-04T01:33:17.702Z,16.37
2023-09-04T01:33:58.324Z,16.35
2023-09-04T01:34:32.386Z,16.34
2023-09-04T01:35:11.368Z,16.36
2023-09-04T01:35:45.608Z,16.36
2023-09-04T01:36:18.729Z,16.35
2023-09-04T01:36:53.089Z,16.36
2023-09-04T01:37:25.939Z,16.38
2023-09-04T01:37:57.875Z,16.38
2023-09-04T01:38:30.030Z,16.39
2023-09-04T01:39:02.179Z,16.42
2023-09-04T01:39:34.690Z,16.43
2023-09-04T01:40:08.780Z,16.43
2023-09-04T01:40:40.773Z,16.43
2023-09-04T01:41:12.716Z,16.42
2023-09-04T01:41:44.692Z,16.42
2023-09-04T01:42:16.617Z,16.39
2023-09-04T01:42:48.522Z,16.37
2023-09-04T01:43:20.430Z,16.40
2023-09-04T01:43:52.366Z,16.42
2023-09-04T01:44:24.301Z,16.40
2023-09-04T01:44:56.213Z,16.39
2023-09-04T01:45:28.158Z,16.40
2023-09-04T01:46:00.331Z,16.41
2023-09-04T01:46:32.433Z,16.42
2023-09-04T01:47:04.630Z,16.40
2023-09-04T01:47:36.570Z,16.38
2023-09-04T01:48:08.836Z,16.38
2023-09-04T01:48:40.753Z,16.41
2023-09-04T01:49:12.703Z,16.42
2023-09-04T01:49:44.770Z,16.43
2023-09-04T01:50:16.730Z,16.44
2023-09-04T01:50:48.697Z,16.44
2023-09-04T01:51:20.609Z,16.44
2023-09-04T01:51:55.202Z,16.44
2023-09-04T01:52:27.111Z,16.41
2023-09-04T01:52:59.028Z,16.43
2023-09-04T01:53:30.940Z,16.43
2023-09-04T01:54:02.895Z,16.44
2023-09-04T01:54:34.798Z,16.44
2023-09-04T01:55:07.006Z,16.45
2023-09-04T01:55:38.923Z,16.44
2023-09-04T01:56:10.850Z,16.43
2023-09-04T01:56:42.754Z,16.46
2023-09-04T01:57:14.657Z,16.46
2023-09-04T01:57:46.586Z,16.47
2023-09-04T01:58:18.610Z,16.48
2023-09-04T01:58:50.518Z,16.47
2023-09-04T01:59:22.581Z,16.46
2023-09-04T01:59:54.488Z,16.43
2023-09-04T02:00:27.187Z,16.46
2023-09-04T02:00:59.094Z,16.46
2023-09-04T02:01:31.428Z,16.48
2023-09-04T02:02:03.374Z,16.46
2023-09-04T02:02:35.362Z,16.44
2023-09-04T02:03:07.417Z,16.47
2023-09-04T02:03:39.944Z,16.47
2023-09-04T02:04:11.984Z,16.49
2023-09-04T02:04:43.940Z,16.52
2023-09-04T02:05:15.882Z,16.49
2023-09-04T02:05:47.807Z,16.48
2023-09-04T02:06:19.719Z,16.49
2023-09-04T02:06:51.645Z,16.50
2023-09-04T02:07:23.546Z,16.52
2023-09-04T02:07:55.455Z,16.51
2023-09-04T02:08:27.367Z,16.49
2023-09-04T02:08:59.438Z,16.49
2023-09-04T02:09:31.391Z,16.48
2023-09-04T02:10:03.817Z,16.45
2023-09-04T02:10:36.838Z,16.44
2023-09-04T02:11:08.750Z,16.42
2023-09-04T02:11:40.768Z,16.44
2023-09-04T02:12:12.698Z,16.42
2023-09-04T02:12:44.606Z,16.39
2023-09-04T02:13:16.831Z,16.39
2023-09-04T02:13:49.114Z,16.39
2023-09-04T02:14:21.299Z,16.39
2023-09-04T02:14:53.590Z,16.38
2023-09-04T02:15:25.604Z,16.39
2023-09-04T02:15:57.570Z,16.37
2023-09-04T02:16:30.864Z,16.36
2023-09-04T02:17:02.935Z,16.36
2023-09-04T02:17:34.908Z,16.35
2023-09-04T02:18:07.156Z,16.34
2023-09-04T02:18:39.578Z,16.35
2023-09-04T02:19:11.486Z,16.32
2023-09-04T02:19:43.408Z,16.34
2023-09-04T02:20:15.348Z,16.34
2023-09-04T02:20:48.250Z,16.30
2023-09-04T02:21:20.156Z,16.31
2023-09-04T02:21:52.082Z,16.30
2023-09-04T02:22:24.076Z,16.26
2023-09-04T02:22:56.141Z,16.26
2023-09-04T02:23:28.037Z,16.30
2023-09-04T02:24:00.196Z,16.32
2023-09-04T02:24:33.547Z,16.32
2023-09-04T02:25:05.739Z,16.30
2023-09-04T02:25:37.650Z,16.31
2023-09-04T02:26:09.677Z,16.34
2023-09-04T02:26:41.569Z,16.33
2023-09-04T02:27:13.468Z,16.34
2023-09-04T02:27:45.377Z,16.33
2023-09-04T02:28:18.012Z,16.31
2023-09-04T02:28:49.903Z,16.32
2023-09-04T02:29:21.805Z,16.32
2023-09-04T02:29:53.734Z,16.33
2023-09-04T02:30:25.652Z,16.29
2023-09-04T02:30:57.696Z,16.32
2023-09-04T02:31:29.635Z,16.31
2023-09-04T02:32:01.571Z,16.31
2023-09-04T02:32:33.530Z,16.33
2023-09-04T02:33:05.494Z,16.29
2023-09-04T02:33:37.501Z,16.32
2023-09-04T02:34:09.403Z,16.27
2023-09-04T02:34:41.597Z,16.32
2023-09-04T02:35:14.017Z,16.32
2023-09-04T02:35:45.911Z,16.30
2023-09-04T02:36:17.839Z,16.30
2023-09-04T02:36:49.747Z,16.28
2023-09-04T02:37:21.660Z,16.30
2023-09-04T02:37:53.575Z,16.28
2023-09-04T02:38:26.164Z,16.29
2023-09-04T02:38:58.347Z,16.27
2023-09-04T02:39:30.972Z,16.28
2023-09-04T02:40:02.939Z,16.24
2023-09-04T02:40:34.924Z,16.23
2023-09-04T02:41:06.834Z,16.21
2023-09-04T02:41:38.775Z,16.20
2023-09-04T02:42:10.903Z,16.18
2023-09-04T02:42:42.838Z,16.21
2023-09-04T02:43:14.723Z,16.23
2023-09-04T02:43:46.634Z,16.18
2023-09-04T02:44:18.539Z,16.17
2023-09-04T02:44:50.444Z,16.15
2023-09-04T02:45:22.566Z,16.16
2023-09-04T02:45:54.515Z,16.19
2023-09-04T02:46:26.554Z,16.17
2023-09-04T02:46:58.517Z,16.16
2023-09-04T02:47:30.434Z,16.14
2023-09-04T02:48:02.396Z,16.12
2023-09-04T02:48:34.341Z,16.13
2023-09-04T02:49:06.330Z,16.13
2023-09-04T02:49:38.236Z,16.08
2023-09-04T02:50:10.432Z,16.06
2023-09-04T02:50:42.338Z,16.07
2023-09-04T02:51:14.241Z,16.06
2023-09-04T02:51:46.170Z,16.06
2023-09-04T02:52:18.268Z,16.08
2023-09-04T02:52:50.217Z,16.05
2023-09-04T02:53:22.119Z,16.05
2023-09-04T02:53:54.034Z,16.03
2023-09-04T02:54:26.418Z,16.04
2023-09-04T02:54:58.905Z,16.05
2023-09-04T02:55:30.844Z,16.06
2023-09-04T02:56:03.147Z,16.03
2023-09-04T02:56:35.065Z,16.02
2023-09-04T02:57:06.955Z,16.04
2023-09-04T02:57:38.898Z,16.02
2023-09-04T02:58:11.123Z,16.00
2023-09-04T02:58:43.256Z,16.05
2023-09-04T02:59:15.247Z,16.05
2023-09-04T02:59:47.172Z,16.06
2023-09-04T03:00:19.074Z,16.02
2023-09-04T03:00:51.362Z,16.02
2023-09-04T03:01:23.351Z,16.03
2023-09-04T03:01:55.282Z,15.99
2023-09-04T03:02:27.235Z,16.00
2023-09-04T03:02:59.293Z,15.98
2023-09-04T03:03:31.260Z,15.95
2023-09-04T03:04:03.335Z,15.95
2023-09-04T03:04:35.254Z,15.92
2023-09-04T03:05:07.498Z,15.94
2023-09-04T03:05:39.411Z,15.95
2023-09-04T03:06:12.283Z,15.94
2023-09-04T03:06:44.209Z,15.92
2023-09-04T03:07:16.118Z,15.92
2023-09-04T03:07:48.468Z,15.90
2023-09-04T03:08:20.449Z,15.91
2023-09-04T03:08:52.454Z,15.90
2023-09-04T03:09:25.424Z,15.91
2023-09-04T03:09:59.234Z,15.88
2023-09-04T03:10:34.189Z,15.85
2023-09-04T03:11:11.063Z,15.87
2023-09-04T03:11:43.092Z,15.87
2023-09-04T03:12:15.012Z,15.85
2023-09-04T03:12:46.937Z,15.84
2023-09-04T03:13:18.893Z,15.83
2023-09-04T03:13:50.804Z,15.81
2023-09-04T03:14:22.711Z,15.81
2023-09-04T03:15:04.297Z,15.81
2023-09-04T03:15:36.301Z,15.79
2023-09-04T03:16:08.490Z,15.79
2023-09-04T03:16:40.496Z,15.78
2023-09-04T03:17:12.474Z,15.79
2023-09-04T03:17:44.471Z,15.79
2023-09-04T03:18:16.417Z,15.77
2023-09-04T03:18:48.335Z,15.78
2023-09-04T03:19:20.247Z,15.79
2023-09-04T03:19:53.435Z,15.82
2023-09-04T03:20:25.346Z,15.80
2023-09-04T03:20:57.374Z,15.75
2023-09-04T03:21:30.103Z,15.81
2023-09-04T03:22:02.071Z,15.75
2023-09-04T03:22:33.993Z,15.75
2023-09-04T03:23:05.919Z,15.75
2023-09-04T03:23:37.826Z,15.73
2023-09-04T03:24:09.767Z,15.74
2023-09-04T03:24:41.730Z,15.72
2023-09-04T03:25:13.689Z,15.70
2023-09-04T03:25:45.666Z,15.68
2023-09-04T03:26:17.584Z,15.68
2023-09-04T03:26:49.483Z,15.68
2023-09-04T03:27:21.413Z,15.71
2023-09-04T03:27:53.330Z,15.70
2023-09-04T03:28:25.750Z,15.67
2023-09-04T03:28:57.960Z,15.65
2023-09-04T03:29:29.877Z,15.67
2023-09-04T03:30:02.238Z,15.63
2023-09-04T03:30:35.421Z,15.65
2023-09-04T03:31:13.765Z,15.64
2023-09-04T03:31:45.676Z,15.67
2023-09-04T03:32:17.615Z,15.66
2023-09-04T03:32:50.635Z,15.66
2023-09-04T03:33:22.768Z,15.65
2023-09-04T03:33:54.939Z,15.66
2023-09-04T03:34:26.906Z,15.70
2023-09-04T03:34:59.281Z,15.66
2023-09-04T03:35:31.211Z,15.66
2023-09-04T03:36:05.596Z,15.65
2023-09-04T03:36:37.520Z,15.63
2023-09-04T03:37:09.427Z,15.66
2023-09-04T03:37:41.476Z,15.64
2023-09-04T03:38:13.545Z,15.64
2023-09-04T03:38:45.620Z,15.66
2023-09-04T03:39:18.072Z,15.66
2023-09-04T03:39:50.007Z,15.63
2023-09-04T03:40:26.363Z,15.62
2023-09-04T03:40:58.310Z,15.59
2023-09-04T03:41:32.077Z,15.58
2023-09-04T03:42:05.129Z,15.59
2023-09-04T03:42:37.063Z,15.58
2023-09-04T03:43:09.043Z,15.58
2023-09-04T03:43:41.043Z,15.58
2023-09-04T03:44:13.056Z,15.59
2023-09-04T03:44:44.985Z,15.58
2023-09-04T03:45:17.203Z,15.55
2023-09-04T03:45:49.172Z,15.57
2023-09-04T03:46:21.118Z,15.57
2023-09-04T03:46:53.094Z,15.52
2023-09-04T03:47:25.004Z,15.51
2023-09-04T03:47:57.513Z,15.54
2023-09-04T03:48:29.703Z,15.52
2023-09-04T03:49:01.923Z,15.51
2023-09-04T03:49:33.883Z,15.54
2023-09-04T03:50:06.137Z,15.52
2023-09-04T03:50:38.896Z,15.53
2023-09-04T03:51:11.242Z,15.55
2023-09-04T03:51:43.151Z,15.55
2023-09-04T03:52:15.124Z,15.55
2023-09-04T03:52:47.290Z,15.52
2023-09-04T03:53:19.202Z,15.52
2023-09-04T03:53:51.119Z,15.52
2023-09-04T03:54:24.120Z,15.55
2023-09-04T03:54:56.278Z,15.55
2023-09-04T03:55:28.211Z,15.52
2023-09-04T03:56:04.829Z,15.54
2023-09-04T03:56:36.859Z,15.51
2023-09-04T03:57:08.780Z,15.51
2023-09-04T03:57:49.041Z,15.48
2023-09-04T03:58:21.009Z,15.48
2023-09-04T03:58:52.996Z,15.49
2023-09-04T03:59:24.926Z,15.51
2023-09-04T03:59:59.982Z,15.52
2023-09-04T04:00:32.438Z,15.52
2023-09-04T04:01:05.530Z,15.49
2023-09-04T04:01:37.541Z,15.49
2023-09-04T04:02:09.438Z,15.48
2023-09-04T04:02:42.167Z,15.49
2023-09-04T04:03:15.860Z,15.46
2023-09-04T04:03:54.273Z,15.47
2023-09-04T04:04:26.245Z,15.45
2023-09-04T04:04:58.151Z,15.47
2023-09-04T04:05:30.102Z,15.49
2023-09-04T04:06:11.549Z,15.47
2023-09-04T04:06:43.480Z,15.49
2023-09-04T04:07:15.493Z,15.45
2023-09-04T04:07:49.171Z,15.44
2023-09-04T04:08:21.201Z,15.46
2023-09-04T04:08:55.734Z,15.48
2023-09-04T04:09:28.241Z,15.46
2023-09-04T04:10:00.235Z,15.42
2023-09-04T04:10:32.153Z,15.42
2023-09-04T04:11:05.437Z,15.43
2023-09-04T04:11:37.349Z,15.43
2023-09-04T04:12:09.651Z,15.42
2023-09-04T04:12:41.706Z,15.41
2023-09-04T04:13:13.792Z,15.44
2023-09-04T04:13:45.775Z,15.44
2023-09-04T04:14:17.816Z,15.44
2023-09-04T04:14:49.738Z,15.46
2023-09-04T04:15:21.869Z,15.46
2023-09-04T04:15:58.599Z,15.46
2023-09-04T04:16:36.445Z,15.43
2023-09-04T04:17:09.553Z,15.45
2023-09-04T04:17:41.621Z,15.41
2023-09-04T04:18:13.592Z,15.43
2023-09-04T04:18:45.524Z,15.44
2023-09-04T04:19:17.494Z,15.47
2023-09-04T04:19:50.343Z,15.45
2023-09-04T04:20:22.254Z,15.44
2023-09-04T04:20:57.890Z,15.46
2023-09-04T04:21:29.836Z,15.44
2023-09-04T04:22:01.744Z,15.45
2023-09-04T04:22:33.766Z,15.43
2023-09-04T04:23:05.680Z,15.45
2023-09-04T04:23:37.612Z,15.45
2023-09-04T04:24:09.574Z,15.46
2023-09-04T04:24:41.474Z,15.46
2023-09-04T04:25:13.407Z,15.47
2023-09-04T04:25:45.348Z,15.46
2023-09-04T04:26:17.269Z,15.47
2023-09-04T04:26:49.560Z,15.49
2023-09-04T04:27:22.681Z,15.48
2023-09-04T04:27:54.602Z,15.48
2023-09-04T04:28:27.094Z,15.45
2023-09-04T04:28:59.119Z,15.47
2023-09-04T04:29:31.076Z,15.46
2023-09-04T04:30:03.812Z,15.51
2023-09-04T04:30:36.694Z,15.51
2023-09-04T04:31:08.614Z,15.51
2023-09-04T04:31:40.617Z,15.51
2023-09-04T04:32:12.598Z,15.49
2023-09-04T04:32:44.567Z,15.46
2023-09-04T04:33:16.504Z,15.49
2023-09-04T04:33:48.430Z,15.49
2023-09-04T04:34:20.716Z,15.49
2023-09-04T04:34:52.697Z,15.51
2023-09-04T04:35:24.773Z,15.50
2023-09-04T04:35:56.687Z,15.52
2023-09-04T04:36:28.602Z,15.53
2023-09-04T04:37:01.331Z,15.52
2023-09-04T04:37:33.280Z,15.53
2023-09-04T04:38:05.204Z,15.51
2023-09-04T04:38:37.179Z,15.54
2023-09-04T04:39:09.082Z,15.53
2023-09-04T04:39:41.004Z,15.55
2023-09-04T04:40:13.114Z,15.51
2023-09-04T04:40:45.000Z,15.48
2023-09-04T04:41:19.613Z,15.48
2023-09-04T04:41:51.546Z,15.45
2023-09-04T04:42:26.531Z,15.50
2023-09-04T04:42:58.512Z,15.49
2023-09-04T04:43:30.431Z,15.48
2023-09-04T04:44:02.348Z,15.47
2023-09-04T04:44:34.254Z,15.48
2023-09-04T04:45:06.884Z,15.49
2023-09-04T04:45:38.825Z,15.50
2023-09-04T04:46:13.876Z,15.52
2023-09-04T04:46:48.922Z,15.50
2023-09-04T04:47:20.845Z,15.51
2023-09-04T04:47:52.924Z,15.49
2023-09-04T04:48:25.064Z,15.51
2023-09-04T04:48:57.361Z,15.54
2023-09-04T04:49:29.274Z,15.53
2023-09-04T04:50:01.194Z,15.53
2023-09-04T04:50:33.175Z,15.52
2023-09-04T04:51:05.129Z,15.51
2023-09-04T04:51:37.105Z,15.53
2023-09-04T04:52:09.059Z,15.50
2023-09-04T04:52:41.052Z,15.52
2023-09-04T04:53:12.942Z,15.51
2023-09-04T04:53:44.853Z,15.52
2023-09-04T04:54:17.348Z,15.53
2023-09-04T04:54:49.260Z,15.53
2023-09-04T04:55:21.168Z,15.52
2023-09-04T04:55:53.087Z,15.56
2023-09-04T04:56:25.035Z,15.59
2023-09-04T04:56:57.056Z,15.57
2023-09-04T04:57:29.158Z,15.56
2023-09-04T04:58:01.124Z,15.57
2023-09-04T04:58:33.015Z,15.59
2023-09-04T04:59:05.042Z,15.57
2023-09-04T04:59:38.122Z,15.56
2023-09-04T05:00:10.402Z,15.63
2023-09-04T05:00:42.307Z,15.67
2023-09-04T05:01:14.269Z,15.65
2023-09-04T05:01:46.814Z,15.70
2023-09-04T05:02:18.859Z,15.71
2023-09-04T05:02:51.008Z,15.71
2023-09-04T05:03:23.135Z,15.71
2023-09-04T05:03:55.062Z,15.74
2023-09-04T05:04:27.036Z,15.75
2023-09-04T05:04:58.985Z,15.75
2023-09-04T05:05:30.900Z,15.77
2023-09-04T05:06:03.292Z,15.77
2023-09-04T05:06:35.228Z,15.77
2023-09-04T05:07:07.140Z,15.79
2023-09-04T05:07:39.132Z,15.79
2023-09-04T05:08:11.115Z,15.81
2023-09-04T05:08:43.023Z,15.83
2023-09-04T05:09:14.918Z,15.87
2023-09-04T05:09:46.833Z,15.86
2023-09-04T05:10:18.785Z,15.86
2023-09-04T05:11:03.910Z,15.89
2023-09-04T05:11:36.780Z,15.91
2023-09-04T05:12:08.837Z,15.93
2023-09-04T05:12:40.772Z,15.91
2023-09-04T05:13:12.795Z,15.94
2023-09-04T05:13:44.713Z,15.95
2023-09-04T05:14:16.624Z,15.96
2023-09-04T05:14:48.551Z,15.95
2023-09-04T05:15:20.493Z,15.99
2023-09-04T05:15:52.459Z,15.98
2023-09-04T05:16:24.390Z,15.97
2023-09-04T05:16:56.745Z,16.00
2023-09-04T05:17:28.737Z,16.02
2023-09-04T05:18:00.832Z,16.04
2023-09-04T05:18:34.058Z,16.07
2023-09-04T05:19:06.520Z,16.07
2023-09-04T05:19:38.441Z,16.09
2023-09-04T05:20:11.167Z,16.09
2023-09-04T05:20:43.094Z,16.09
2023-09-04T05:21:14.990Z,16.09
2023-09-04T05:21:56.240Z,16.11
2023-09-04T05:22:29.418Z,16.16
2023-09-04T05:23:02.841Z,16.17
2023-09-04T05:23:35.610Z,16.18
2023-09-04T05:24:08.118Z,16.22
2023-09-04T05:24:40.039Z,16.19
2023-09-04T05:25:12.786Z,16.21
2023-09-04T05:25:54.918Z,16.23
2023-09-04T05:26:26.873Z,16.22
2023-09-04T05:26:58.806Z,16.21
2023-09-04T05:27:30.754Z,16.23
2023-09-04T05:28:02.732Z,16.23
2023-09-04T05:28:34.664Z,16.29
2023-09-04T05:29:06.590Z,16.29
2023-09-04T05:29:38.709Z,16.32
2023-09-04T05:30:10.806Z,16.32
2023-09-04T05:30:42.732Z,16.32
2023-09-04T05:31:14.672Z,16.35
2023-09-04T05:31:46.616Z,16.35
2023-09-04T05:32:18.544Z,16.34
2023-09-04T05:32:54.295Z,16.38
2023-09-04T05:33:26.913Z,16.39
2023-09-04T05:33:58.832Z,16.39
2023-09-04T05:34:30.753Z,16.39
2023-09-04T05:35:02.951Z,16.42
2023-09-04T05:35:34.889Z,16.46
2023-09-04T05:36:09.323Z,16.47
2023-09-04T05:36:41.284Z,16.47
2023-09-04T05:37:13.564Z,16.49
2023-09-04T05:37:45.711Z,16.49
2023-09-04T05:38:17.656Z,16.47
2023-09-04T05:38:49.976Z,16.44
2023-09-04T05:39:21.923Z,16.49
2023-09-04T05:39:55.189Z,16.49
2023-09-04T05:40:27.178Z,16.52
2023-09-04T05:41:01.862Z,16.54
2023-09-04T05:41:33.772Z,16.56
2023-09-04T05:42:06.178Z,16.60
2023-09-04T05:42:38.104Z,16.63
2023-09-04T05:43:10.084Z,16.65
2023-09-04T05:43:42.063Z,16.67
2023-09-04T05:44:13.992Z,16.69
2023-09-04T05:44:45.901Z,16.71
2023-09-04T05:45:17.835Z,16.71
2023-09-04T05:45:51.113Z,16.71
2023-09-04T05:46:23.051Z,16.72
2023-09-04T05:46:55.082Z,16.73
2023-09-04T05:47:27.118Z,16.72
2023-09-04T05:47:59.397Z,16.72
2023-09-04T05:48:32.647Z,16.73
2023-09-04T05:49:04.726Z,16.75
2023-09-04T05:49:36.638Z,16.74
2023-09-04T05:50:08.907Z,16.78
2023-09-04T05:50:40.814Z,16.78
2023-09-04T05:51:13.033Z,16.78
2023-09-04T05:51:44.932Z,16.75
2023-09-04T05:52:17.968Z,16.80
2023-09-04T05:52:49.877Z,16.79
2023-09-04T05:53:21.826Z,16.81
2023-09-04T05:53:54.027Z,16.84
2023-09-04T05:54:25.964Z,16.85
2023-09-04T05:54:57.941Z,16.87
2023-09-04T05:55:29.932Z,16.90
2023-09-04T05:56:11.012Z,16.92
2023-09-04T05:56:42.975Z,16.92
2023-09-04T05:57:14.880Z,16.95
2023-09-04T05:57:46.789Z,16.98
2023-09-04T05:58:19.009Z,16.99
2023-09-04T05:58:52.348Z,17.03
2023-09-04T05:59:24.699Z,17.05
2023-09-04T05:59:56.721Z,17.06
2023-09-04T06:00:28.994Z,17.10
2023-09-04T06:01:01.228Z,17.14
2023-09-04T06:01:33.237Z,17.14
2023-09-04T06:02:05.275Z,17.16
2023-09-04T06:02:37.214Z,17.20
2023-09-04T06:03:10.791Z,17.21
2023-09-04T06:03:44.039Z,17.22
2023-09-04T06:04:15.976Z,17.24
2023-09-04T06:04:48.065Z,17.28
2023-09-04T06:05:19.974Z,17.28
2023-09-04T06:05:51.881Z,17.28
2023-09-04T06:06:23.813Z,17.29
2023-09-04T06:06:55.734Z,17.33
2023-09-04T06:07:27.668Z,17.35
2023-09-04T06:07:59.583Z,17.40
2023-09-04T06:08:32.102Z,17.42
2023-09-04T06:09:04.279Z,17.45
2023-09-04T06:09:36.197Z,17.45
2023-09-04T06:10:08.336Z,17.45
2023-09-04T06:10:40.282Z,17.49
2023-09-04T06:11:13.432Z,17.50
2023-09-04T06:11:45.539Z,17.54
2023-09-04T06:12:17.483Z,17.58
2023-09-04T06:12:49.499Z,17.59
2023-09-04T06:13:21.470Z,17.55
2023-09-04T06:13:53.380Z,17.60
2023-09-04T06:14:25.692Z,17.64
2023-09-04T06:14:57.611Z,17.64
2023-09-04T06:15:29.529Z,17.65
2023-09-04T06:16:02.880Z,17.67
2023-09-04T06:16:35.374Z,17.69
2023-09-04T06:17:07.473Z,17.72
2023-09-04T06:17:39.405Z,17.76
2023-09-04T06:18:11.318Z,17.80
2023-09-04T06:18:43.297Z,17.83
2023-09-04T06:19:15.214Z,17.84
2023-09-04T06:19:47.120Z,17.85
2023-09-04T06:20:19.031Z,17.88
2023-09-04T06:20:51.826Z,17.90
2023-09-04T06:21:23.740Z,17.90
2023-09-04T06:21:56.157Z,17.94
2023-09-04T06:22:28.104Z,17.94
2023-09-04T06:23:00.058Z,17.93
2023-09-04T06:23:33.484Z,17.93
2023-09-04T06:24:05.703Z,17.96
2023-09-04T06:24:37.594Z,17.99
2023-09-04T06:25:09.611Z,18.00
2023-09-04T06:25:44.154Z,18.02
2023-09-04T06:26:16.082Z,18.08
2023-09-04T06:26:47.983Z,18.11
2023-09-04T06:27:19.891Z,18.13
2023-09-04T06:27:51.982Z,18.14
2023-09-04T06:28:25.017Z,18.14
2023-09-04T06:28:57.230Z,18.14
2023-09-04T06:29:30.331Z,18.15
2023-09-04T06:30:02.240Z,18.20
2023-09-04T06:30:34.211Z,18.24
2023-09-04T06:31:06.292Z,18.28
2023-09-04T06:31:38.408Z,18.28
2023-09-04T06:32:12.139Z,18.30
2023-09-04T06:32:44.104Z,18.32
2023-09-04T06:33:16.056Z,18.34
2023-09-04T06:33:48.906Z,18.36
2023-09-04T06:34:20.825Z,18.39
2023-09-04T06:34:52.741Z,18.40
2023-09-04T06:35:24.713Z,18.44
2023-09-04T06:35:56.642Z,18.46
2023-09-04T06:36:28.636Z,18.49
2023-09-04T06:37:00.579Z,18.53
2023-09-04T06:37:32.491Z,18.55
2023-09-04T06:38:04.810Z,18.58
2023-09-04T06:38:36.863Z,18.59
2023-09-04T06:39:09.070Z,18.63
2023-09-04T06:39:41.030Z,18.65
2023-09-04T06:40:13.191Z,18.67
2023-09-04T06:40:45.109Z,18.73
2023-09-04T06:41:17.354Z,18.77
2023-09-04T06:41:50.314Z,18.81
2023-09-04T06:42:22.357Z,18.82
2023-09-04T06:42:54.552Z,18.84
2023-09-04T06:43:31.102Z,18.86
2023-09-04T06:44:04.036Z,18.89
2023-09-04T06:44:35.969Z,18.93
2023-09-04T06:45:08.309Z,18.97
2023-09-04T06:45:40.366Z,19.02
2023-09-04T06:46:12.310Z,19.08
2023-09-04T06:46:44.277Z,19.09
2023-09-04T06:47:16.259Z,19.13
2023-09-04T06:47:49.127Z,19.16
2023-09-04T06:48:21.410Z,19.17
2023-09-04T06:48:53.397Z,19.21
2023-09-04T06:49:25.323Z,19.25
2023-09-04T06:49:57.227Z,19.26
2023-09-04T06:50:29.303Z,19.28
2023-09-04T06:51:01.569Z,19.32
2023-09-04T06:51:33.623Z,19.34
2023-09-04T06:52:05.636Z,19.36
2023-09-04T06:52:37.556Z,19.39
2023-09-04T06:53:09.518Z,19.41
2023-09-04T06:53:41.417Z,19.47
2023-09-04T06:54:13.345Z,19.49
2023-09-04T06:54:45.255Z,19.49
2023-09-04T06:55:17.232Z,19.52
2023-09-04T06:55:49.596Z,19.57
2023-09-04T06:56:21.535Z,19.60
2023-09-04T06:56:53.530Z,19.64
2023-09-04T06:57:25.437Z,19.69
2023-09-04T06:57:57.381Z,19.71
2023-09-04T06:58:30.135Z,19.75
2023-09-04T06:59:02.048Z,19.77
2023-09-04T06:59:34.000Z,19.80
2023-09-04T07:00:10.284Z,19.83
2023-09-04T07:00:42.298Z,19.84